Time;durP1;ratioP1;P1;durP2;ratioP2;P2;SDS_P1;SDS_P2;PMS_P1;PMS_P2;Temp;Humidity;BMP_temperature;BMP_pressure;BME280_temperature;BME280_humidity;BME280_pressure;Samples;Min_cycle;Max_cycle;Signal;HPM_P1;HPM_P2
2022/01/04 00:01:34;;;;;;;;;;;8.60;99.90;;;;;;5001023;28;19906;-73
2022/01/04 00:04:02;;;;;;;;;;;8.70;99.90;;;;;;5002595;28;19925;-73
2022/01/04 00:06:28;;;;;;;;;;;8.70;99.90;;;;;;5004411;28;19910;-73
2022/01/04 00:08:59;;;;;;;;;;;8.80;99.90;;;;;;5003671;28;20319;-73
2022/01/04 00:11:42;;;;;;;;;;;8.80;99.90;;;;;;5002443;28;19910;-73
2022/01/04 00:14:07;;;;;;;;;;;8.90;99.90;;;;;;5007682;28;19914;-73
2022/01/04 00:16:33;;;;;;;;;;;8.80;99.90;;;;;;5004056;28;19916;-73
2022/01/04 00:18:58;;;;;;;;;;;8.80;99.90;;;;;;5007072;28;19919;-73
2022/01/04 00:21:24;;;;;;;;;;;8.90;99.90;;;;;;5008113;28;19968;-74
2022/01/04 00:23:49;;;;;;;;;;;8.90;99.90;;;;;;5009539;28;19920;-74
2022/01/04 00:26:15;;;;;;;;;;;9.10;99.90;;;;;;5006202;28;19909;-74
2022/01/04 00:28:41;;;;;;;;;;;9.00;99.90;;;;;;5008554;28;19909;-74
2022/01/04 00:31:06;;;;;;;;;;;9.00;99.90;;;;;;5006482;28;19915;-73
2022/01/04 00:33:32;;;;;;;;;;;9.00;99.90;;;;;;5007369;28;19921;-73
2022/01/04 00:35:57;;;;;;;;;;;9.00;99.90;;;;;;5002965;28;19967;-73
2022/01/04 00:38:23;;;;;;;;;;;9.00;99.90;;;;;;5005530;28;19910;-74
2022/01/04 00:40:48;;;;;;;;;;;9.00;99.90;;;;;;5009367;28;19932;-74
2022/01/04 00:43:14;;;;;;;;;;;8.90;99.90;;;;;;5008496;28;19917;-73
2022/01/04 00:45:40;;;;;;;;;;;9.00;99.90;;;;;;5009273;28;19954;-73
2022/01/04 00:50:33;;;;;;;;;;;9.10;99.90;;;;;;5009936;28;19914;-73
2022/01/04 00:52:59;;;;;;;;;;;9.10;99.90;;;;;;5006231;28;19910;-72
2022/01/04 00:55:25;;;;;;;;;;;9.10;99.90;;;;;;5007412;28;20363;-73
2022/01/04 00:57:50;;;;;;;;;;;9.00;99.90;;;;;;5009052;28;20428;-73
2022/01/04 01:00:16;;;;;;;;;;;9.00;99.90;;;;;;5008628;28;19917;-73
2022/01/04 01:02:42;;;;;;;;;;;8.90;99.90;;;;;;5008753;28;19910;-74
2022/01/04 01:05:08;;;;;;;;;;;8.90;99.90;;;;;;5007978;28;19913;-73
2022/01/04 01:07:34;;;;;;;;;;;8.90;99.90;;;;;;5004802;28;20498;-72
2022/01/04 01:12:41;;;;;;;;;;;8.90;99.90;;;;;;5006034;28;19909;-72
2022/01/04 01:15:07;;;;;;;;;;;8.90;99.90;;;;;;5011502;28;19916;-73
2022/01/04 01:17:33;;;;;;;;;;;9.00;99.90;;;;;;5008777;28;19932;-72
2022/01/04 01:19:59;;;;;;;;;;;9.00;99.90;;;;;;5006528;28;20363;-73
2022/01/04 01:22:25;;;;;;;;;;;9.00;99.90;;;;;;5009766;28;19915;-72
2022/01/04 01:24:51;;;;;;;;;;;9.00;99.90;;;;;;5008384;28;20004;-75
2022/01/04 01:27:16;;;;;;;;;;;9.10;99.90;;;;;;5003379;28;20026;-74
2022/01/04 01:29:42;;;;;;;;;;;9.10;99.90;;;;;;5007655;28;19925;-73
2022/01/04 01:32:08;;;;;;;;;;;9.00;99.90;;;;;;5009145;28;19942;-73
2022/01/04 01:34:33;;;;;;;;;;;9.10;99.90;;;;;;5009629;28;19917;-74
2022/01/04 01:36:59;;;;;;;;;;;9.00;99.90;;;;;;5009024;28;19979;-72
2022/01/04 01:39:24;;;;;;;;;;;9.10;99.90;;;;;;5006559;28;19953;-73
2022/01/04 01:41:50;;;;;;;;;;;8.90;99.90;;;;;;5009161;28;19917;-73
2022/01/04 01:44:16;;;;;;;;;;;9.00;99.90;;;;;;4996178;28;19909;-72
2022/01/04 01:46:41;;;;;;;;;;;8.90;99.90;;;;;;5013837;28;19967;-73
2022/01/04 01:49:07;;;;;;;;;;;8.90;99.90;;;;;;5012999;28;20107;-73
2022/01/04 01:51:33;;;;;;;;;;;8.80;99.90;;;;;;5012421;28;20316;-72
2022/01/04 01:53:59;;;;;;;;;;;8.80;99.90;;;;;;5013588;28;19928;-72
2022/01/04 01:56:25;;;;;;;;;;;8.80;99.90;;;;;;5010310;28;19909;-72
2022/01/04 01:58:50;;;;;;;;;;;8.70;99.90;;;;;;5016512;28;20282;-72
2022/01/04 02:01:16;;;;;;;;;;;8.80;99.90;;;;;;5016815;28;19909;-73
2022/01/04 02:03:42;;;;;;;;;;;8.80;99.90;;;;;;5011423;28;19987;-73
2022/01/04 02:06:07;;;;;;;;;;;8.80;99.90;;;;;;5013254;28;19916;-73
2022/01/04 02:08:34;;;;;;;;;;;8.90;99.90;;;;;;5018519;28;20432;-73
2022/01/04 02:11:01;;;;;;;;;;;8.90;99.90;;;;;;5010612;28;19960;-73
2022/01/04 02:13:27;;;;;;;;;;;8.80;99.90;;;;;;5005237;28;20315;-72
2022/01/04 02:15:53;;;;;;;;;;;8.70;99.90;;;;;;5007626;28;20409;-72
2022/01/04 02:18:18;;;;;;;;;;;8.70;99.90;;;;;;5011173;28;19917;-72
2022/01/04 02:20:44;;;;;;;;;;;8.70;99.90;;;;;;5009462;28;20324;-73
2022/01/04 02:23:10;;;;;;;;;;;8.60;99.90;;;;;;5001940;28;19974;-71
2022/01/04 02:25:35;;;;;;;;;;;8.70;99.90;;;;;;4996468;28;19909;-72
2022/01/04 02:28:01;;;;;;;;;;;8.70;99.90;;;;;;5009927;28;19996;-71
2022/01/04 02:30:27;;;;;;;;;;;8.60;99.90;;;;;;5006390;28;19925;-73
2022/01/04 02:32:52;;;;;;;;;;;8.60;99.90;;;;;;5006978;28;19910;-73
2022/01/04 02:35:19;;;;;;;;;;;8.60;99.90;;;;;;5009814;28;19910;-73
2022/01/04 02:37:45;;;;;;;;;;;8.50;99.90;;;;;;5006461;28;19909;-73
2022/01/04 02:40:11;;;;;;;;;;;8.50;99.90;;;;;;5008037;28;19921;-73
2022/01/04 02:42:36;;;;;;;;;;;8.50;99.90;;;;;;5009192;28;19916;-73
2022/01/04 02:45:02;;;;;;;;;;;8.50;99.90;;;;;;5011914;28;19928;-73
2022/01/04 02:47:28;;;;;;;;;;;8.60;99.90;;;;;;5004363;28;20224;-73
2022/01/04 02:49:54;;;;;;;;;;;8.60;99.90;;;;;;4998173;28;19910;-73
2022/01/04 02:52:20;;;;;;;;;;;8.60;99.90;;;;;;5013248;28;19913;-73
2022/01/04 02:54:46;;;;;;;;;;;8.60;99.90;;;;;;5012143;28;19958;-73
2022/01/04 02:57:11;;;;;;;;;;;8.50;99.90;;;;;;5012681;28;19905;-73
2022/01/04 02:59:37;;;;;;;;;;;8.50;99.90;;;;;;5007211;28;19913;-72
2022/01/04 03:02:03;;;;;;;;;;;8.50;99.90;;;;;;5012577;28;19910;-72
2022/01/04 03:04:29;;;;;;;;;;;8.50;99.90;;;;;;5004449;28;20425;-72
2022/01/04 03:06:55;;;;;;;;;;;8.50;99.90;;;;;;5012114;28;19959;-73
2022/01/04 03:09:20;;;;;;;;;;;8.60;99.90;;;;;;4997788;28;19909;-73
2022/01/04 03:11:46;;;;;;;;;;;8.60;99.90;;;;;;5011710;28;19909;-73
2022/01/04 03:14:11;;;;;;;;;;;8.50;99.90;;;;;;4993215;28;20012;-73
2022/01/04 03:16:37;;;;;;;;;;;8.60;99.90;;;;;;5002366;28;20283;-73
2022/01/04 03:19:05;;;;;;;;;;;8.60;99.90;;;;;;5011245;28;19913;-73
2022/01/04 03:21:35;;;;;;;;;;;8.60;99.90;;;;;;5012051;28;19910;-73
2022/01/04 03:24:01;;;;;;;;;;;8.50;99.90;;;;;;5011057;28;19914;-73
2022/01/04 03:26:27;;;;;;;;;;;8.50;99.90;;;;;;5011751;28;19906;-72
2022/01/04 03:28:52;;;;;;;;;;;8.40;99.90;;;;;;5012269;28;19912;-73
2022/01/04 03:31:18;;;;;;;;;;;8.40;99.90;;;;;;5014774;28;20008;-72
2022/01/04 03:33:44;;;;;;;;;;;8.50;99.90;;;;;;5000808;28;19995;-73
2022/01/04 03:36:09;;;;;;;;;;;8.60;99.90;;;;;;5012781;28;19913;-73
2022/01/04 03:38:35;;;;;;;;;;;8.50;99.90;;;;;;5012317;28;20008;-73
2022/01/04 03:41:00;;;;;;;;;;;8.50;99.90;;;;;;5013434;28;19913;-72
2022/01/04 03:43:26;;;;;;;;;;;8.50;99.90;;;;;;5010987;28;19948;-72
2022/01/04 03:45:52;;;;;;;;;;;8.40;99.90;;;;;;5016690;28;19961;-72
2022/01/04 03:48:18;;;;;;;;;;;8.50;99.90;;;;;;5008042;28;19910;-72
2022/01/04 03:50:44;;;;;;;;;;;8.50;99.90;;;;;;5005577;28;19910;-72
2022/01/04 03:53:09;;;;;;;;;;;8.50;99.90;;;;;;5010522;28;19918;-72
2022/01/04 03:55:35;;;;;;;;;;;8.60;99.90;;;;;;5009248;28;20399;-72
2022/01/04 03:58:00;;;;;;;;;;;8.60;99.90;;;;;;5009820;28;19909;-73
2022/01/04 04:00:26;;;;;;;;;;;8.60;99.90;;;;;;4993842;28;19953;-73
2022/01/04 04:02:52;;;;;;;;;;;8.60;99.90;;;;;;5011042;28;19940;-73
2022/01/04 04:05:18;;;;;;;;;;;8.60;99.90;;;;;;5000046;28;19916;-73
2022/01/04 04:07:43;;;;;;;;;;;8.70;99.90;;;;;;5009051;28;19958;-73
2022/01/04 04:10:09;;;;;;;;;;;8.60;99.90;;;;;;5011544;28;20635;-73
2022/01/04 04:12:35;;;;;;;;;;;8.60;99.90;;;;;;5007796;28;20322;-73
2022/01/04 04:15:04;;;;;;;;;;;8.50;99.90;;;;;;5011335;28;19914;-71
2022/01/04 04:17:32;;;;;;;;;;;8.50;99.90;;;;;;5009779;28;19936;-72
2022/01/04 04:19:58;;;;;;;;;;;8.60;99.90;;;;;;5005786;28;19913;-72
2022/01/04 04:22:24;;;;;;;;;;;8.60;99.90;;;;;;5010830;28;19962;-73
2022/01/04 04:24:49;;;;;;;;;;;8.60;99.90;;;;;;5010555;28;19913;-74
2022/01/04 04:27:15;;;;;;;;;;;8.60;99.90;;;;;;5011678;28;19909;-73
2022/01/04 04:29:41;;;;;;;;;;;8.70;99.90;;;;;;5011193;28;19910;-73
2022/01/04 04:32:07;;;;;;;;;;;8.60;99.90;;;;;;5006752;28;19913;-74
2022/01/04 04:34:32;;;;;;;;;;;8.70;99.90;;;;;;5006286;28;20354;-72
2022/01/04 04:36:58;;;;;;;;;;;8.60;99.90;;;;;;5010819;28;19935;-72
2022/01/04 04:39:24;;;;;;;;;;;8.50;99.90;;;;;;4999854;28;19945;-73
2022/01/04 04:41:49;;;;;;;;;;;8.60;99.90;;;;;;5009218;28;19970;-73
2022/01/04 04:44:15;;;;;;;;;;;8.70;99.90;;;;;;4999842;28;19909;-73
2022/01/04 04:46:41;;;;;;;;;;;8.60;99.90;;;;;;5004960;28;19916;-73
2022/01/04 04:49:06;;;;;;;;;;;8.60;99.90;;;;;;4994502;28;19910;-72
2022/01/04 04:51:32;;;;;;;;;;;8.60;99.90;;;;;;5009348;28;20370;-72
2022/01/04 04:53:58;;;;;;;;;;;8.70;99.90;;;;;;5010616;28;19955;-74
2022/01/04 04:56:23;;;;;;;;;;;8.70;99.90;;;;;;5010716;28;19936;-72
2022/01/04 04:58:49;;;;;;;;;;;8.70;99.90;;;;;;5008948;28;19913;-72
2022/01/04 05:01:14;;;;;;;;;;;8.70;99.90;;;;;;5010850;28;20294;-73
2022/01/04 05:03:40;;;;;;;;;;;8.60;99.90;;;;;;5009322;28;19913;-71
2022/01/04 05:06:05;;;;;;;;;;;8.70;99.90;;;;;;5010548;28;20260;-74
2022/01/04 05:08:31;;;;;;;;;;;8.70;99.90;;;;;;4992887;28;19953;-72
2022/01/04 05:10:57;;;;;;;;;;;8.70;99.90;;;;;;5002618;28;19909;-72
2022/01/04 05:13:23;;;;;;;;;;;8.70;99.90;;;;;;5009617;28;19953;-72
2022/01/04 05:15:49;;;;;;;;;;;8.70;99.90;;;;;;5009150;28;19960;-72
2022/01/04 05:18:15;;;;;;;;;;;8.70;99.90;;;;;;5009915;28;19909;-73
2022/01/04 05:20:40;;;;;;;;;;;8.70;99.90;;;;;;5008799;28;19913;-74
2022/01/04 05:23:06;;;;;;;;;;;8.70;99.90;;;;;;5000109;28;20355;-72
2022/01/04 05:25:32;;;;;;;;;;;8.60;99.90;;;;;;5010445;28;19910;-73
2022/01/04 05:27:57;;;;;;;;;;;8.60;99.90;;;;;;5002705;28;19910;-74
2022/01/04 05:30:23;;;;;;;;;;;8.70;99.90;;;;;;5009965;28;19916;-73
2022/01/04 05:32:49;;;;;;;;;;;8.60;99.90;;;;;;5010412;28;20335;-74
2022/01/04 05:35:14;;;;;;;;;;;8.60;99.90;;;;;;5009382;28;19924;-72
2022/01/04 05:37:40;;;;;;;;;;;8.60;99.90;;;;;;4998335;28;19913;-73
2022/01/04 05:40:06;;;;;;;;;;;8.70;99.90;;;;;;4990714;28;20360;-72
2022/01/04 05:42:31;;;;;;;;;;;8.70;99.90;;;;;;4998002;28;19957;-73
2022/01/04 05:44:57;;;;;;;;;;;8.60;99.90;;;;;;5006579;28;20303;-73
2022/01/04 05:47:24;;;;;;;;;;;8.60;99.90;;;;;;5009209;28;19916;-73
2022/01/04 05:49:50;;;;;;;;;;;8.70;99.90;;;;;;5004175;28;19913;-73
2022/01/04 05:52:16;;;;;;;;;;;8.70;99.90;;;;;;5009409;28;20283;-73
2022/01/04 05:54:43;;;;;;;;;;;8.70;99.90;;;;;;5010548;28;19910;-72
2022/01/04 05:57:09;;;;;;;;;;;8.70;99.90;;;;;;5010965;28;20552;-73
2022/01/04 05:59:34;;;;;;;;;;;8.70;99.90;;;;;;5003009;28;19956;-73
2022/01/04 06:02:00;;;;;;;;;;;8.70;99.90;;;;;;5009794;28;19948;-74
2022/01/04 06:04:26;;;;;;;;;;;8.70;99.90;;;;;;5010202;28;20421;-74
2022/01/04 06:06:51;;;;;;;;;;;8.70;99.90;;;;;;5008867;28;20282;-72
2022/01/04 06:09:28;;;;;;;;;;;8.70;99.90;;;;;;5002015;28;19918;-72
2022/01/04 06:17:08;;;;;;;;;;;8.60;99.90;;;;;;5010908;28;19952;-73
2022/01/04 06:19:34;;;;;;;;;;;8.60;99.90;;;;;;5012320;28;19920;-73
2022/01/04 06:21:59;;;;;;;;;;;8.60;99.90;;;;;;5014374;28;19989;-72
2022/01/04 06:24:25;;;;;;;;;;;8.70;99.90;;;;;;5013702;28;19910;-73
2022/01/04 06:26:52;;;;;;;;;;;8.70;99.90;;;;;;5009205;28;20413;-72
2022/01/04 06:29:20;;;;;;;;;;;8.60;99.90;;;;;;4992607;28;19906;-72
2022/01/04 06:31:45;;;;;;;;;;;8.60;99.90;;;;;;4994097;28;19948;-73
2022/01/04 06:34:11;;;;;;;;;;;8.60;99.90;;;;;;4999741;28;19956;-73
2022/01/04 06:36:36;;;;;;;;;;;8.60;99.90;;;;;;5013691;28;19975;-73
2022/01/04 06:39:02;;;;;;;;;;;8.60;99.90;;;;;;4999491;28;19964;-73
2022/01/04 06:41:28;;;;;;;;;;;8.60;99.90;;;;;;5003939;28;20062;-72
2022/01/04 06:43:54;;;;;;;;;;;8.70;99.90;;;;;;4994227;28;20000;-73
2022/01/04 06:46:19;;;;;;;;;;;8.70;99.90;;;;;;4993843;28;19996;-74
2022/01/04 06:48:45;;;;;;;;;;;8.70;99.90;;;;;;4996507;28;19921;-73
2022/01/04 06:51:10;;;;;;;;;;;8.60;99.90;;;;;;5012757;28;19927;-74
2022/01/04 06:53:36;;;;;;;;;;;8.60;99.90;;;;;;4995273;28;19955;-73
2022/01/04 06:56:02;;;;;;;;;;;8.70;99.90;;;;;;4999492;28;20008;-73
2022/01/04 06:58:28;;;;;;;;;;;8.70;99.90;;;;;;5013140;28;20354;-73
2022/01/04 07:00:53;;;;;;;;;;;8.70;99.90;;;;;;5007648;28;19913;-73
2022/01/04 07:03:19;;;;;;;;;;;8.70;99.90;;;;;;4994382;28;19997;-73
2022/01/04 07:05:44;;;;;;;;;;;8.70;99.90;;;;;;5001411;28;19933;-74
2022/01/04 07:08:10;;;;;;;;;;;8.70;99.90;;;;;;5010817;28;19913;-74
2022/01/04 07:10:36;;;;;;;;;;;8.70;99.90;;;;;;5005896;28;19910;-74
2022/01/04 07:13:01;;;;;;;;;;;8.70;99.90;;;;;;5009888;28;19913;-73
2022/01/04 07:15:27;;;;;;;;;;;8.70;99.90;;;;;;5012286;28;20364;-72
2022/01/04 07:17:52;;;;;;;;;;;8.80;99.90;;;;;;5007689;28;20359;-73
2022/01/04 07:20:18;;;;;;;;;;;8.70;99.90;;;;;;5001921;28;20282;-74
2022/01/04 07:22:44;;;;;;;;;;;8.70;99.90;;;;;;5002402;28;19910;-74
2022/01/04 07:25:09;;;;;;;;;;;8.70;99.90;;;;;;5004188;28;19920;-74
2022/01/04 07:27:35;;;;;;;;;;;8.70;99.90;;;;;;5010904;28;19909;-74
2022/01/04 07:30:02;;;;;;;;;;;8.70;99.90;;;;;;5000009;28;20324;-74
2022/01/04 07:32:27;;;;;;;;;;;8.70;99.90;;;;;;5001799;28;19916;-74
2022/01/04 07:34:53;;;;;;;;;;;8.60;99.90;;;;;;5007039;28;19909;-75
2022/01/04 07:37:18;;;;;;;;;;;8.70;99.90;;;;;;5003883;28;19921;-69
2022/01/04 07:39:44;;;;;;;;;;;8.70;99.90;;;;;;5002820;28;19909;-69
2022/01/04 07:42:09;;;;;;;;;;;8.70;99.90;;;;;;5002286;28;19914;-69
2022/01/04 07:44:35;;;;;;;;;;;8.60;99.90;;;;;;5003838;28;19909;-69
2022/01/04 07:47:01;;;;;;;;;;;8.60;99.90;;;;;;5003958;28;20359;-70
2022/01/04 07:49:26;;;;;;;;;;;8.60;99.90;;;;;;5007850;28;20570;-69
2022/01/04 07:51:52;;;;;;;;;;;8.70;99.90;;;;;;5002291;28;19910;-66
2022/01/04 07:54:18;;;;;;;;;;;8.70;99.90;;;;;;5005132;28;19929;-69
2022/01/04 07:56:43;;;;;;;;;;;8.70;99.90;;;;;;5002497;28;19946;-68
2022/01/04 07:59:09;;;;;;;;;;;8.60;99.90;;;;;;5003683;28;20008;-68
2022/01/04 08:01:34;;;;;;;;;;;8.60;99.90;;;;;;5011698;28;20004;-68
2022/01/04 08:04:00;;;;;;;;;;;8.50;99.90;;;;;;5006735;28;19909;-68
2022/01/04 08:06:26;;;;;;;;;;;8.50;99.90;;;;;;5003843;28;19909;-67
2022/01/04 08:08:52;;;;;;;;;;;8.60;99.90;;;;;;5010937;28;19909;-68
2022/01/04 08:11:18;;;;;;;;;;;8.50;99.90;;;;;;5007237;28;20260;-69
2022/01/04 08:13:44;;;;;;;;;;;8.50;99.90;;;;;;4997523;28;19920;-69
2022/01/04 08:16:09;;;;;;;;;;;8.50;99.90;;;;;;5008561;28;19913;-68
2022/01/04 08:18:35;;;;;;;;;;;8.50;99.90;;;;;;4995354;28;19960;-68
2022/01/04 08:21:03;;;;;;;;;;;8.70;99.90;;;;;;5021876;28;19943;-68
2022/01/04 08:23:30;;;;;;;;;;;8.90;99.90;;;;;;4998137;28;20269;-70
2022/01/04 08:25:56;;;;;;;;;;;8.90;99.90;;;;;;5002538;28;19931;-68
2022/01/04 08:28:22;;;;;;;;;;;8.90;99.90;;;;;;5024422;28;20415;-68
2022/01/04 08:30:48;;;;;;;;;;;8.80;99.90;;;;;;5012556;28;19952;-68
2022/01/04 08:33:14;;;;;;;;;;;8.90;99.90;;;;;;5011925;28;19944;-69
2022/01/04 08:35:39;;;;;;;;;;;8.90;99.90;;;;;;5012786;28;20274;-69
2022/01/04 08:38:06;;;;;;;;;;;8.90;99.90;;;;;;5006759;28;19909;-68
2022/01/04 08:40:31;;;;;;;;;;;9.00;99.90;;;;;;4996496;28;19917;-67
2022/01/04 08:42:57;;;;;;;;;;;9.00;99.90;;;;;;5011641;28;19927;-68
2022/01/04 08:45:24;;;;;;;;;;;9.00;99.90;;;;;;5008345;28;19910;-68
2022/01/04 08:47:51;;;;;;;;;;;9.00;99.90;;;;;;4991936;28;19932;-68
2022/01/04 08:50:17;;;;;;;;;;;9.00;99.90;;;;;;4994025;28;19913;-68
2022/01/04 08:52:43;;;;;;;;;;;9.10;99.90;;;;;;5008596;28;19910;-68
2022/01/04 08:55:09;;;;;;;;;;;9.10;99.90;;;;;;5006487;28;19910;-68
2022/01/04 08:57:35;;;;;;;;;;;9.10;99.90;;;;;;5008964;28;19909;-68
2022/01/04 09:00:00;;;;;;;;;;;9.10;99.90;;;;;;5008338;28;19913;-68
2022/01/04 09:02:27;;;;;;;;;;;9.10;99.90;;;;;;5011579;28;19909;-68
2022/01/04 09:04:52;;;;;;;;;;;9.10;99.90;;;;;;5010150;28;19913;-68
2022/01/04 09:07:18;;;;;;;;;;;9.30;99.90;;;;;;5009855;28;19913;-68
2022/01/04 09:09:44;;;;;;;;;;;9.30;99.90;;;;;;5009082;28;19909;-68
2022/01/04 09:12:10;;;;;;;;;;;9.20;99.90;;;;;;5011337;28;19932;-67
2022/01/04 09:19:52;;;;;;;;;;;9.20;99.90;;;;;;4993487;28;19920;-69
2022/01/04 09:22:18;;;;;;;;;;;9.20;99.90;;;;;;5010561;28;19925;-68
2022/01/04 09:24:43;;;;;;;;;;;9.20;99.90;;;;;;5009442;28;19956;-69
2022/01/04 09:27:10;;;;;;;;;;;9.20;99.90;;;;;;5009418;28;19909;-69
2022/01/04 09:29:35;;;;;;;;;;;9.20;99.90;;;;;;5009992;28;19936;-67
2022/01/04 09:32:02;;;;;;;;;;;9.10;99.90;;;;;;5010796;28;19910;-67
2022/01/04 09:34:28;;;;;;;;;;;9.10;99.90;;;;;;5010714;28;19909;-68
2022/01/04 09:36:54;;;;;;;;;;;9.00;99.90;;;;;;5007104;28;19909;-68
2022/01/04 09:39:21;;;;;;;;;;;9.00;99.90;;;;;;4997579;28;19948;-68
2022/01/04 09:41:47;;;;;;;;;;;9.00;99.90;;;;;;5006564;28;20275;-68
2022/01/04 09:44:13;;;;;;;;;;;8.90;99.90;;;;;;5005424;28;19910;-68
2022/01/04 09:46:39;;;;;;;;;;;9.00;99.90;;;;;;5008755;28;19913;-68
2022/01/04 09:49:05;;;;;;;;;;;9.00;99.90;;;;;;5005453;28;19932;-68
2022/01/04 09:51:31;;;;;;;;;;;9.00;99.90;;;;;;5009328;28;19909;-69
2022/01/04 09:53:57;;;;;;;;;;;9.00;99.90;;;;;;5009983;28;20434;-68
2022/01/04 09:56:22;;;;;;;;;;;8.90;99.90;;;;;;5012562;28;19910;-68
2022/01/04 09:58:48;;;;;;;;;;;9.00;99.90;;;;;;5014624;28;19905;-68
2022/01/04 10:01:21;;;;;;;;;;;9.00;99.90;;;;;;5003040;28;19910;-68
2022/01/04 10:03:47;;;;;;;;;;;9.20;99.90;;;;;;5008603;28;19917;-68
2022/01/04 10:06:16;;;;;;;;;;;9.20;99.90;;;;;;5014437;28;19996;-67
2022/01/04 10:09:12;;;;;;;;;;;9.40;99.90;;;;;;5011340;28;19911;-68
2022/01/04 10:11:47;;;;;;;;;;;9.30;99.90;;;;;;5014483;28;20319;-68
2022/01/04 10:14:25;;;;;;;;;;;9.30;99.90;;;;;;5010760;28;19920;-67
2022/01/04 10:16:51;;;;;;;;;;;9.30;99.90;;;;;;5007868;28;19971;-69
2022/01/04 10:19:35;;;;;;;;;;;9.40;99.90;;;;;;4997861;28;20096;-68
2022/01/04 10:22:09;;;;;;;;;;;9.50;99.90;;;;;;4994500;28;19917;-67
2022/01/04 10:24:35;;;;;;;;;;;9.50;99.90;;;;;;4995841;28;19917;-68
2022/01/04 10:27:20;;;;;;;;;;;9.50;99.90;;;;;;4995775;28;19913;-68
2022/01/04 10:29:46;;;;;;;;;;;9.40;99.90;;;;;;5010868;28;20383;-68
2022/01/04 10:32:12;;;;;;;;;;;9.30;99.90;;;;;;5008942;28;19941;-68
2022/01/04 10:34:47;;;;;;;;;;;9.40;99.90;;;;;;5011844;28;20036;-67
2022/01/04 10:37:32;;;;;;;;;;;9.40;99.90;;;;;;5011564;28;20297;-69
2022/01/04 10:40:08;;;;;;;;;;;9.40;99.90;;;;;;4999193;28;19920;-69
2022/01/04 10:42:33;;;;;;;;;;;9.30;99.90;;;;;;4995970;28;19925;-70
2022/01/04 10:44:59;;;;;;;;;;;9.30;99.90;;;;;;5011467;28;19913;-71
2022/01/04 10:47:26;;;;;;;;;;;9.30;99.90;;;;;;5013560;28;19909;-69
2022/01/04 10:49:51;;;;;;;;;;;9.30;99.90;;;;;;5011808;28;19956;-69
2022/01/04 10:52:22;;;;;;;;;;;9.30;99.90;;;;;;5012168;28;20394;-68
2022/01/04 10:55:08;;;;;;;;;;;9.30;99.90;;;;;;5012603;28;19989;-68
2022/01/04 10:57:37;;;;;;;;;;;9.30;99.90;;;;;;4996161;28;19909;-70
2022/01/04 11:00:15;;;;;;;;;;;9.20;99.90;;;;;;5012767;28;19983;-69
2022/01/04 11:02:41;;;;;;;;;;;9.20;99.90;;;;;;5012694;28;19941;-69
2022/01/04 11:05:14;;;;;;;;;;;9.20;99.90;;;;;;5013507;28;19905;-67
2022/01/04 11:07:57;;;;;;;;;;;9.20;99.90;;;;;;5010524;28;19925;-67
2022/01/04 11:10:23;;;;;;;;;;;9.30;99.90;;;;;;5012719;28;19909;-67
2022/01/04 11:12:49;;;;;;;;;;;9.30;99.90;;;;;;5004171;28;19917;-68
2022/01/04 11:15:14;;;;;;;;;;;9.30;99.90;;;;;;4996241;28;19909;-68
2022/01/04 11:17:40;;;;;;;;;;;9.30;99.90;;;;;;5007242;28;20379;-68
2022/01/04 11:20:06;;;;;;;;;;;9.30;99.90;;;;;;5005067;28;19923;-68
2022/01/04 11:22:32;;;;;;;;;;;9.30;99.90;;;;;;5005619;28;20363;-68
2022/01/04 11:25:01;;;;;;;;;;;9.40;99.90;;;;;;5016304;28;19973;-68
2022/01/04 11:27:26;;;;;;;;;;;9.40;99.90;;;;;;5005762;28;19909;-68
2022/01/04 11:29:58;;;;;;;;;;;9.30;99.90;;;;;;5013921;28;19912;-68
2022/01/04 11:32:24;;;;;;;;;;;9.20;99.90;;;;;;5013835;28;19913;-69
2022/01/04 11:34:50;;;;;;;;;;;9.20;99.90;;;;;;5014876;28;19917;-68
2022/01/04 11:37:19;;;;;;;;;;;9.30;99.90;;;;;;5012601;28;20263;-69
2022/01/04 11:39:45;;;;;;;;;;;9.30;99.90;;;;;;5011609;28;19913;-68
2022/01/04 11:42:31;;;;;;;;;;;9.30;99.90;;;;;;5013691;28;20052;-67
2022/01/04 11:44:57;;;;;;;;;;;9.40;99.90;;;;;;4994717;28;19944;-68
2022/01/04 11:47:32;;;;;;;;;;;9.30;99.90;;;;;;4998747;28;19917;-68
2022/01/04 11:50:13;;;;;;;;;;;9.40;99.90;;;;;;5012719;28;20398;-68
2022/01/04 11:52:39;;;;;;;;;;;9.40;99.90;;;;;;5012536;28;19960;-69
2022/01/04 11:55:15;;;;;;;;;;;9.50;99.90;;;;;;4993378;28;20383;-68
2022/01/04 11:57:41;;;;;;;;;;;9.50;99.90;;;;;;5003370;28;19913;-68
2022/01/04 12:00:07;;;;;;;;;;;9.40;99.90;;;;;;5004413;28;20694;-68
2022/01/04 12:02:35;;;;;;;;;;;9.40;99.90;;;;;;5011096;28;19917;-68
2022/01/04 12:05:04;;;;;;;;;;;9.40;99.90;;;;;;5003570;28;19945;-68
2022/01/04 12:07:38;;;;;;;;;;;9.40;99.90;;;;;;5011132;28;19960;-68
2022/01/04 12:10:19;;;;;;;;;;;9.30;99.90;;;;;;5011012;28;19909;-69
2022/01/04 12:12:55;;;;;;;;;;;9.40;99.90;;;;;;5013526;28;19979;-69
2022/01/04 12:15:30;;;;;;;;;;;9.30;99.90;;;;;;5008744;28;19917;-68
2022/01/04 12:17:57;;;;;;;;;;;9.30;99.90;;;;;;5013324;28;19963;-68
2022/01/04 12:20:41;;;;;;;;;;;9.30;99.90;;;;;;5015289;28;19909;-69
2022/01/04 12:23:35;;;;;;;;;;;9.30;99.90;;;;;;5009654;28;19917;-68
2022/01/04 12:26:05;;;;;;;;;;;9.40;99.90;;;;;;5011110;28;20351;-66
2022/01/04 12:28:41;;;;;;;;;;;9.20;99.90;;;;;;5012037;28;19913;-70
2022/01/04 12:31:12;;;;;;;;;;;9.10;99.90;;;;;;5010975;28;19905;-69
2022/01/04 12:33:38;;;;;;;;;;;9.10;99.90;;;;;;5012698;28;20704;-69
2022/01/04 12:36:04;;;;;;;;;;;9.00;99.90;;;;;;5007754;28;19909;-68
2022/01/04 12:38:30;;;;;;;;;;;9.10;99.90;;;;;;5009412;28;19919;-69
2022/01/04 12:40:56;;;;;;;;;;;9.20;99.90;;;;;;5009690;28;20340;-68
2022/01/04 12:43:22;;;;;;;;;;;9.30;99.90;;;;;;5008320;28;19953;-69
2022/01/04 12:46:03;;;;;;;;;;;9.30;99.90;;;;;;5009863;28;19932;-68
2022/01/04 12:48:48;;;;;;;;;;;9.40;99.90;;;;;;5006808;28;20016;-69
2022/01/04 12:51:29;;;;;;;;;;;9.50;99.90;;;;;;5010474;28;19945;-68
2022/01/04 12:53:57;;;;;;;;;;;9.50;99.90;;;;;;5007110;28;19948;-69
2022/01/04 12:56:23;;;;;;;;;;;9.60;99.90;;;;;;5006577;28;19961;-69
2022/01/04 12:58:49;;;;;;;;;;;9.60;99.90;;;;;;5009045;28;20335;-68
2022/01/04 13:01:20;;;;;;;;;;;9.70;99.90;;;;;;5009416;28;19909;-69
2022/01/04 13:03:46;;;;;;;;;;;9.70;99.90;;;;;;5008399;28;20327;-69
2022/01/04 13:06:12;;;;;;;;;;;9.70;99.90;;;;;;5008854;28;19913;-69
2022/01/04 13:08:37;;;;;;;;;;;9.70;99.90;;;;;;5008304;28;19909;-69
2022/01/04 13:11:06;;;;;;;;;;;9.80;99.90;;;;;;5007030;28;19920;-70
2022/01/04 13:13:32;;;;;;;;;;;9.70;99.90;;;;;;5001577;28;20316;-67
2022/01/04 13:16:16;;;;;;;;;;;9.70;99.90;;;;;;5008997;28;20023;-68
2022/01/04 13:18:42;;;;;;;;;;;9.70;99.90;;;;;;5007397;28;19909;-68
2022/01/04 13:21:07;;;;;;;;;;;9.70;99.90;;;;;;5009535;28;19917;-69
2022/01/04 13:23:40;;;;;;;;;;;9.60;99.90;;;;;;5008481;28;19917;-69
2022/01/04 13:26:05;;;;;;;;;;;9.50;99.90;;;;;;5003784;28;20279;-70
2022/01/04 13:28:33;;;;;;;;;;;9.50;99.90;;;;;;5007022;28;19909;-70
2022/01/04 13:30:58;;;;;;;;;;;9.50;99.90;;;;;;5006233;28;19917;-69
2022/01/04 13:33:25;;;;;;;;;;;9.60;99.90;;;;;;5009296;28;19909;-69
2022/01/04 13:35:52;;;;;;;;;;;9.50;99.90;;;;;;5005625;28;20338;-69
2022/01/04 13:38:20;;;;;;;;;;;9.50;99.90;;;;;;5008764;28;19996;-69
2022/01/04 13:40:46;;;;;;;;;;;9.50;99.90;;;;;;5009068;28;20387;-69
2022/01/04 13:43:13;;;;;;;;;;;9.40;99.90;;;;;;5007591;28;19909;-67
2022/01/04 13:45:49;;;;;;;;;;;9.40;99.90;;;;;;5007744;28;20423;-68
2022/01/04 13:48:35;;;;;;;;;;;9.40;99.90;;;;;;5006539;28;19913;-69
2022/01/04 13:51:07;;;;;;;;;;;9.40;99.90;;;;;;5002408;28;19913;-65
2022/01/04 13:53:34;;;;;;;;;;;9.50;99.90;;;;;;5002180;28;19910;-67
2022/01/04 13:56:01;;;;;;;;;;;9.50;99.90;;;;;;5002404;28;19956;-67
2022/01/04 13:58:36;;;;;;;;;;;9.60;99.90;;;;;;5002450;28;19962;-66
2022/01/04 14:01:20;;;;;;;;;;;9.60;99.90;;;;;;5007923;28;20359;-68
2022/01/04 14:04:06;;;;;;;;;;;9.70;99.90;;;;;;5000962;28;20353;-66
2022/01/04 14:06:51;;;;;;;;;;;9.70;99.90;;;;;;5007430;28;19909;-67
2022/01/04 14:09:16;;;;;;;;;;;9.70;99.90;;;;;;5000050;28;19909;-67
2022/01/04 14:11:43;;;;;;;;;;;9.80;99.90;;;;;;5011110;28;20047;-68
2022/01/04 14:14:10;;;;;;;;;;;9.80;99.90;;;;;;5009702;28;19920;-67
2022/01/04 14:16:40;;;;;;;;;;;9.80;99.90;;;;;;5007568;28;19996;-67
2022/01/04 14:19:08;;;;;;;;;;;9.80;99.90;;;;;;5009976;28;20240;-68
2022/01/04 14:21:38;;;;;;;;;;;9.80;99.90;;;;;;5008811;28;20302;-67
2022/01/04 14:24:23;;;;;;;;;;;9.80;99.90;;;;;;4993388;28;19921;-68
2022/01/04 14:26:49;;;;;;;;;;;9.90;99.90;;;;;;5013541;28;19932;-67
2022/01/04 14:29:25;;;;;;;;;;;9.80;99.90;;;;;;5005031;28;20012;-66
2022/01/04 14:31:51;;;;;;;;;;;9.70;99.90;;;;;;5009704;28;19915;-68
2022/01/04 14:34:16;;;;;;;;;;;9.70;99.90;;;;;;5008829;28;19905;-66
2022/01/04 14:36:42;;;;;;;;;;;9.70;99.90;;;;;;5006810;28;19917;-66
2022/01/04 14:39:08;;;;;;;;;;;9.70;99.90;;;;;;5009427;28;19913;-68
2022/01/04 14:41:34;;;;;;;;;;;9.70;99.90;;;;;;5012817;28;19909;-67
2022/01/04 14:43:59;;;;;;;;;;;9.70;99.90;;;;;;5013032;28;19958;-68
2022/01/04 14:46:25;;;;;;;;;;;9.70;99.90;;;;;;5013441;28;19916;-68
2022/01/04 14:48:50;;;;;;;;;;;9.70;99.90;;;;;;5012548;28;19914;-69